createdAt,value
2019-06-27T00:06:07.855Z,100969.30
2019-06-27T00:09:53.095Z,100972.86
2019-06-27T00:13:15.312Z,100972.83
2019-06-27T00:20:03.551Z,100974.77
2019-06-27T00:23:01.956Z,100967.57
2019-06-27T00:26:15.102Z,100980.95
2019-06-27T00:33:40.602Z,100979.13
2019-06-27T00:36:39.966Z,100979.60
2019-06-27T00:40:08.788Z,100985.77
2019-06-27T00:54:08.637Z,100987.29
2019-06-27T00:56:39.390Z,100993.28
2019-06-27T01:00:10.088Z,100993.53
2019-06-27T01:07:17.290Z,100999.61
2019-06-27T01:13:45.404Z,101006.69
2019-06-27T01:17:01.742Z,101014.36
2019-06-27T01:20:34.269Z,101013.17
2019-06-27T01:34:41.420Z,101035.92
2019-06-27T01:38:46.852Z,101035.31
2019-06-27T01:41:44.223Z,101038.62
2019-06-27T01:46:04.575Z,101040.28
2019-06-27T01:49:22.650Z,101042.72
2019-06-27T01:52:53.752Z,101052.86
2019-06-27T01:56:55.873Z,101058.56
2019-06-27T02:04:28.509Z,101063.25
2019-06-27T02:08:19.137Z,101057.25
2019-06-27T02:10:18.920Z,101068.37
2019-06-27T02:13:20.330Z,101073.19
2019-06-27T02:20:18.441Z,101081.81
2019-06-27T02:30:56.941Z,101075.00
2019-06-27T02:34:14.210Z,101083.16
2019-06-27T02:37:18.977Z,101082.70
2019-06-27T02:40:49.483Z,101087.41
2019-06-27T02:51:50.942Z,101085.42
2019-06-27T02:54:12.892Z,101095.57
2019-06-27T02:57:40.553Z,101097.78
2019-06-27T03:04:32.876Z,101110.59
2019-06-27T03:11:46.249Z,101111.05
2019-06-27T03:16:23.982Z,101109.20
2019-06-27T03:18:08.609Z,101117.83
2019-06-27T03:21:44.303Z,101124.44
2019-06-27T03:29:29.346Z,101118.59
2019-06-27T03:36:16.070Z,101127.80
2019-06-27T03:39:35.512Z,101133.64
2019-06-27T03:41:08.780Z,101117.77
2019-06-27T03:43:06.425Z,101134.27
2019-06-27T03:56:42.812Z,101137.28
2019-06-27T04:03:21.055Z,101134.28
2019-06-27T04:06:09.820Z,101123.83
2019-06-27T04:15:52.728Z,101144.30
2019-06-27T04:19:13.501Z,101141.48
2019-06-27T04:23:13.041Z,101139.68
2019-06-27T04:34:18.181Z,101141.44
2019-06-27T04:40:54.764Z,101140.63
2019-06-27T04:47:29.396Z,101141.08
2019-06-27T04:54:15.149Z,101151.68
2019-06-27T04:57:35.633Z,101139.63
2019-06-27T05:00:52.622Z,101147.28
2019-06-27T05:07:41.179Z,101148.70
2019-06-27T05:15:00.196Z,101147.50
2019-06-27T05:19:01.045Z,101145.71
2019-06-27T05:23:15.208Z,101140.38
2019-06-27T05:25:15.143Z,101144.34
2019-06-27T05:28:37.481Z,101147.71
2019-06-27T05:32:11.708Z,101152.62
2019-06-27T05:39:53.993Z,101151.89
2019-06-27T05:43:15.158Z,101147.53
2019-06-27T06:01:25.306Z,101174.79
2019-06-27T06:11:10.271Z,101168.48
2019-06-27T06:14:02.096Z,101166.73
2019-06-27T06:17:42.626Z,101171.81
2019-06-27T06:21:02.764Z,101176.77
2019-06-27T06:23:46.502Z,101177.84
2019-06-27T06:27:02.149Z,101177.61
2019-06-27T06:31:08.439Z,101177.44
2019-06-27T06:36:55.339Z,101176.38
2019-06-27T06:43:32.581Z,101174.03
2019-06-27T06:46:49.774Z,101186.06
2019-06-27T06:52:08.726Z,101188.28
2019-06-27T06:52:56.088Z,101189.00
2019-06-27T07:01:08.093Z,101182.98
2019-06-27T07:04:10.272Z,101186.62
2019-06-27T07:29:11.177Z,101187.21
2019-06-27T07:39:04.908Z,101183.13
2019-06-27T07:45:28.686Z,101191.73
2019-06-27T07:48:51.450Z,101192.58
2019-06-27T07:52:26.473Z,101191.42
2019-06-27T08:10:25.671Z,101176.80
2019-06-27T08:12:57.763Z,101176.91
2019-06-27T08:15:43.924Z,101173.86
2019-06-27T08:21:44.750Z,101175.63
2019-06-27T08:24:44.068Z,101170.99
2019-06-27T08:27:20.466Z,101166.26
2019-06-27T08:29:55.059Z,101160.67
2019-06-27T08:33:49.907Z,101158.33
2019-06-27T08:36:32.748Z,101154.78
2019-06-27T08:39:15.284Z,101157.27
2019-06-27T08:41:47.212Z,101152.66
2019-06-27T08:44:31.781Z,101151.22
2019-06-27T08:47:19.511Z,101156.84
2019-06-27T08:49:52.582Z,101148.41
2019-06-27T08:52:27.054Z,101147.86
2019-06-27T08:55:05.177Z,101146.38
2019-06-27T08:57:45.913Z,101147.67
2019-06-27T09:00:50.349Z,101140.00
2019-06-27T09:03:25.689Z,101147.78
2019-06-27T09:06:33.311Z,101149.62
2019-06-27T09:09:30.876Z,101146.31
2019-06-27T09:12:21.358Z,101146.93
2019-06-27T09:14:56.203Z,101142.59
2019-06-27T09:17:45.255Z,101142.05
2019-06-27T09:20:40.390Z,101140.79
2019-06-27T09:23:17.187Z,101145.72
2019-06-27T09:26:01.057Z,101140.30
2019-06-27T09:28:51.130Z,101142.54
2019-06-27T09:31:55.312Z,101134.72
2019-06-27T09:34:50.295Z,101135.06
2019-06-27T09:37:43.520Z,101131.20
2019-06-27T09:40:44.601Z,101129.31
2019-06-27T09:43:31.478Z,101129.70
2019-06-27T09:46:36.868Z,101125.45
2019-06-27T09:49:43.838Z,101124.91
2019-06-27T09:52:35.885Z,101127.52
2019-06-27T09:56:02.484Z,101120.34
2019-06-27T10:11:53.388Z,101112.58
2019-06-27T10:14:40.210Z,101117.22
2019-06-27T10:17:29.499Z,101109.09
2019-06-27T10:20:13.150Z,101103.89
2019-06-27T10:23:03.321Z,101106.75
2019-06-27T10:25:51.323Z,101101.87
2019-06-27T10:28:25.974Z,101100.95
2019-06-27T10:31:01.841Z,101100.00
2019-06-27T10:33:32.390Z,101100.31
2019-06-27T10:36:24.830Z,101100.21
2019-06-27T10:39:02.323Z,101097.61
2019-06-27T10:41:32.819Z,101098.92
2019-06-27T10:44:04.215Z,101097.00
2019-06-27T10:46:40.373Z,101091.09
2019-06-27T10:49:34.112Z,101097.06
2019-06-27T10:52:17.124Z,101093.61
2019-06-27T10:55:26.807Z,101091.54
2019-06-27T11:01:39.446Z,101076.31
2019-06-27T11:04:16.348Z,101095.56
2019-06-27T11:06:47.027Z,101081.92
2019-06-27T11:09:25.836Z,101090.87
2019-06-27T11:12:00.661Z,101080.23
2019-06-27T11:14:39.870Z,101071.50
2019-06-27T11:17:12.886Z,101082.16
2019-06-27T11:20:08.457Z,101079.28
2019-06-27T11:22:50.464Z,101077.70
2019-06-27T11:25:29.369Z,101069.84
2019-06-27T11:28:17.828Z,101069.58
2019-06-27T11:31:13.922Z,101061.05
2019-06-27T11:34:36.064Z,101068.05
2019-06-27T11:41:05.959Z,101064.20
2019-06-27T11:43:52.422Z,101056.80
2019-06-27T11:50:24.208Z,101063.22
2019-06-27T11:54:38.864Z,101047.52
2019-06-27T12:01:03.824Z,101050.98
2019-06-27T12:07:00.933Z,101046.42
2019-06-27T12:10:00.056Z,101046.75
2019-06-27T12:12:35.084Z,101049.44
2019-06-27T12:15:15.666Z,101048.92
2019-06-27T12:17:59.653Z,101037.47
2019-06-27T12:23:54.602Z,101034.69
2019-06-27T12:27:08.401Z,101028.63
2019-06-27T12:30:08.396Z,101027.94
2019-06-27T12:32:51.933Z,101023.16
2019-06-27T12:35:27.767Z,101022.78
2019-06-27T12:38:07.959Z,101024.80
2019-06-27T12:40:36.168Z,101022.97
2019-06-27T12:43:09.363Z,101016.08
2019-06-27T12:45:44.193Z,101020.39
2019-06-27T12:48:30.003Z,101011.64
2019-06-27T12:51:11.332Z,101016.11
2019-06-27T12:53:46.697Z,101008.96
2019-06-27T12:56:45.515Z,101013.09
2019-06-27T12:59:22.313Z,101004.28
2019-06-27T13:02:12.901Z,100996.09
2019-06-27T13:04:47.288Z,100990.96
2019-06-27T13:08:05.509Z,100997.23
2019-06-27T13:10:30.505Z,100991.89
2019-06-27T13:13:06.133Z,100996.61
2019-06-27T13:15:41.095Z,100994.55
2019-06-27T13:18:26.783Z,100992.13
2019-06-27T13:20:58.824Z,100994.58
2019-06-27T13:23:37.840Z,100999.07
2019-06-27T13:26:21.388Z,100997.91
2019-06-27T13:28:54.264Z,100992.60
2019-06-27T13:31:48.584Z,100992.67
2019-06-27T13:34:40.043Z,100982.87
2019-06-27T13:37:03.374Z,100982.11
2019-06-27T13:39:34.426Z,100985.01
2019-06-27T13:42:05.277Z,100984.75
2019-06-27T13:44:50.699Z,100981.48
2019-06-27T13:47:38.074Z,100986.25
2019-06-27T13:50:15.247Z,100974.80
2019-06-27T13:52:54.471Z,100977.02
2019-06-27T13:55:38.464Z,100980.67
2019-06-27T13:58:30.051Z,100971.73
2019-06-27T14:01:15.109Z,100976.65
2019-06-27T14:03:50.119Z,100966.59
2019-06-27T14:06:28.996Z,100967.45
2019-06-27T14:09:03.320Z,100969.37
2019-06-27T14:11:48.697Z,100969.37
2019-06-27T14:14:26.859Z,100960.75
2019-06-27T14:17:04.068Z,100955.93
2019-06-27T14:19:44.905Z,100956.17
2019-06-27T14:22:29.209Z,100957.95
2019-06-27T14:25:12.801Z,100942.78
2019-06-27T14:28:10.559Z,100947.11
2019-06-27T14:30:58.452Z,100952.88
2019-06-27T14:33:31.538Z,100942.73
2019-06-27T14:36:02.112Z,100944.43
2019-06-27T14:38:55.779Z,100939.67
2019-06-27T14:41:26.254Z,100937.97
2019-06-27T14:44:08.811Z,100939.28
2019-06-27T14:46:39.413Z,100943.99
2019-06-27T14:49:16.048Z,100935.66
2019-06-27T14:51:53.825Z,100930.87
2019-06-27T14:54:26.522Z,100931.07
2019-06-27T14:57:01.199Z,100935.94
2019-06-27T14:59:49.695Z,100930.97
2019-06-27T15:02:51.904Z,100936.61
2019-06-27T15:05:32.937Z,100932.88
2019-06-27T15:08:19.378Z,100939.53
2019-06-27T15:12:13.785Z,100932.11
2019-06-27T15:14:45.349Z,100917.84
2019-06-27T15:17:49.577Z,100926.00
2019-06-27T15:20:46.338Z,100924.47
2019-06-27T15:23:31.343Z,100927.16
2019-06-27T15:26:04.869Z,100923.37
2019-06-27T15:29:20.289Z,100918.75
2019-06-27T15:36:21.189Z,100916.34
2019-06-27T15:39:58.281Z,100908.06
2019-06-27T15:50:49.475Z,100903.73
2019-06-27T15:58:04.302Z,100903.30
2019-06-27T16:09:56.309Z,100897.42
2019-06-27T16:13:24.897Z,100896.61
2019-06-27T16:27:41.123Z,100885.93
2019-06-27T16:29:21.573Z,100895.48
2019-06-27T16:31:28.648Z,100893.02
2019-06-27T16:35:07.873Z,100899.33
2019-06-27T16:38:25.007Z,100897.54
2019-06-27T16:42:14.567Z,100898.42
2019-06-27T16:53:39.554Z,100890.44
2019-06-27T16:56:39.629Z,100892.09
2019-06-27T17:03:08.781Z,100902.14
2019-06-27T17:06:41.627Z,100896.34
2019-06-27T17:10:14.439Z,100907.58
2019-06-27T17:13:18.152Z,100904.00
2019-06-27T17:23:05.503Z,100907.31
2019-06-27T17:26:11.483Z,100907.55
2019-06-27T17:30:52.815Z,100905.33
2019-06-27T17:31:56.875Z,100909.61
2019-06-27T17:39:44.577Z,100910.13
2019-06-27T17:43:18.543Z,100916.97
2019-06-27T17:47:07.715Z,100910.34
2019-06-27T17:53:24.047Z,100917.39
2019-06-27T17:56:57.068Z,100914.50
2019-06-27T18:04:15.735Z,100910.37
2019-06-27T18:07:49.152Z,100917.67
2019-06-27T18:11:01.761Z,100919.97
2019-06-27T18:14:16.945Z,100917.64
2019-06-27T18:18:52.657Z,100921.24
2019-06-27T18:20:34.823Z,100922.19
2019-06-27T18:23:27.233Z,100925.72
2019-06-27T18:29:54.433Z,100918.22
2019-06-27T18:34:15.103Z,100916.55
2019-06-27T18:36:48.761Z,100928.30
2019-06-27T18:40:49.811Z,100925.75
2019-06-27T18:44:25.035Z,100932.36
2019-06-27T18:54:11.139Z,100931.57
2019-06-27T18:57:16.126Z,100931.35
2019-06-27T19:00:28.119Z,100930.38
2019-06-27T19:04:20.841Z,100936.59
2019-06-27T19:07:20.068Z,100938.30
2019-06-27T19:10:51.606Z,100940.72
2019-06-27T19:14:24.298Z,100944.05
2019-06-27T19:24:28.892Z,100968.47
2019-06-27T19:28:01.061Z,100979.00
2019-06-27T19:31:31.205Z,100986.92
2019-06-27T19:42:21.073Z,100999.77
2019-06-27T19:45:25.377Z,101006.43
2019-06-27T19:51:59.829Z,101013.80
2019-06-27T19:55:14.206Z,101010.88
2019-06-27T19:58:50.407Z,101025.31
2019-06-27T20:05:48.934Z,101020.02
2019-06-27T20:19:43.905Z,101024.88
2019-06-27T20:41:57.442Z,101042.20
2019-06-27T20:49:30.025Z,101049.09
2019-06-27T21:13:09.702Z,101062.44
2019-06-27T21:16:00.415Z,101063.41
2019-06-27T21:19:13.668Z,101067.48
2019-06-27T21:25:53.223Z,101078.38
2019-06-27T21:39:06.634Z,101085.48
2019-06-27T21:42:16.241Z,101091.73
2019-06-27T21:51:50.474Z,101103.23
2019-06-27T21:53:04.127Z,101094.43
2019-06-27T21:58:39.856Z,101114.17
2019-06-27T22:02:20.418Z,101122.92
2019-06-27T22:05:54.555Z,101125.38
2019-06-27T22:08:59.799Z,101116.09
2019-06-27T22:15:29.784Z,101120.46
2019-06-27T22:24:34.823Z,101125.73
2019-06-27T22:24:40.190Z,101125.20
2019-06-27T22:30:41.987Z,101124.44
2019-06-27T22:34:45.712Z,101129.41
2019-06-27T22:41:47.831Z,101134.69
2019-06-27T22:44:49.063Z,101140.74
2019-06-27T22:48:04.649Z,101134.36
2019-06-27T22:57:50.898Z,101148.08
2019-06-27T23:04:43.328Z,101138.83
2019-06-27T23:07:48.039Z,101146.49
2019-06-27T23:11:03.397Z,101143.33
2019-06-27T23:13:50.343Z,101145.72
2019-06-27T23:19:55.125Z,101154.18
2019-06-27T23:23:07.036Z,101152.14
2019-06-27T23:37:13.602Z,101159.66
2019-06-27T23:44:51.069Z,101165.20
2019-06-27T23:48:07.313Z,101169.55
2019-06-27T23:51:38.875Z,101154.12
2019-06-27T23:54:54.773Z,101160.67
2019-06-27T23:58:01.756Z,101156.38
